createdAt,value
2018-09-05T00:00:32.411Z,71.30
2018-09-05T00:03:01.915Z,71.20
2018-09-05T00:05:31.351Z,71.20
2018-09-05T00:08:00.777Z,71.40
2018-09-05T00:10:30.278Z,71.60
2018-09-05T00:12:59.682Z,72.10
2018-09-05T00:15:29.214Z,72.00
2018-09-05T00:17:58.651Z,72.10
2018-09-05T00:20:28.082Z,71.90
2018-09-05T00:22:57.511Z,71.80
2018-09-05T00:25:26.932Z,71.90
2018-09-05T00:27:56.622Z,71.90
2018-09-05T00:30:26.138Z,72.00
2018-09-05T00:32:55.870Z,72.20
2018-09-05T00:35:25.327Z,72.30
2018-09-05T00:37:54.735Z,72.20
2018-09-05T00:40:24.576Z,72.00
2018-09-05T00:42:53.983Z,72.00
2018-09-05T00:45:23.394Z,71.90
2018-09-05T00:47:52.848Z,71.70
2018-09-05T00:50:22.258Z,71.70
2018-09-05T00:52:51.688Z,71.90
2018-09-05T00:55:21.125Z,72.60
2018-09-05T00:57:50.591Z,72.20
2018-09-05T01:00:20.012Z,71.90
2018-09-05T01:02:49.648Z,72.10
2018-09-05T01:05:19.144Z,72.10
2018-09-05T01:07:48.671Z,72.20
2018-09-05T01:10:18.175Z,72.60
2018-09-05T01:12:47.743Z,72.90
2018-09-05T01:15:17.143Z,73.10
2018-09-05T01:17:46.563Z,73.10
2018-09-05T01:20:16.000Z,73.20
2018-09-05T01:22:45.424Z,73.10
2018-09-05T01:25:14.850Z,73.10
2018-09-05T01:27:44.268Z,73.30
2018-09-05T01:30:13.705Z,73.70
2018-09-05T01:32:43.098Z,74.10
2018-09-05T01:35:12.489Z,74.30
2018-09-05T01:37:41.990Z,74.40
2018-09-05T01:40:11.406Z,74.50
2018-09-05T01:42:40.875Z,74.20
2018-09-05T01:45:10.318Z,74.40
2018-09-05T01:47:39.730Z,74.30
2018-09-05T01:50:09.180Z,74.50
2018-09-05T01:52:38.571Z,74.80
2018-09-05T01:55:08.050Z,74.90
2018-09-05T01:57:37.478Z,75.10
2018-09-05T02:00:11.192Z,75.30
2018-09-05T02:02:40.643Z,75.60
2018-09-05T02:05:10.043Z,75.80
2018-09-05T02:07:39.458Z,76.00
2018-09-05T02:10:08.908Z,76.20
2018-09-05T02:12:38.363Z,76.30
2018-09-05T02:15:07.805Z,76.40
2018-09-05T02:17:37.211Z,76.50
2018-09-05T02:20:06.664Z,76.40
2018-09-05T02:22:36.428Z,76.20
2018-09-05T02:25:06.114Z,75.90
2018-09-05T02:27:35.546Z,75.60
2018-09-05T02:30:05.504Z,75.50
2018-09-05T02:32:34.915Z,75.20
2018-09-05T02:35:04.434Z,75.00
2018-09-05T02:37:33.950Z,74.60
2018-09-05T02:40:03.463Z,75.60
2018-09-05T02:42:32.866Z,75.10
2018-09-05T02:45:02.350Z,75.20
2018-09-05T02:47:32.043Z,75.10
2018-09-05T02:50:01.462Z,75.20
2018-09-05T02:52:30.931Z,75.20
2018-09-05T02:55:00.339Z,75.50
2018-09-05T02:57:29.749Z,75.60
2018-09-05T02:59:59.153Z,75.30
2018-09-05T03:02:28.574Z,76.40
2018-09-05T03:04:58.389Z,77.40
2018-09-05T03:07:27.838Z,77.50
2018-09-05T03:09:57.248Z,77.00
2018-09-05T03:12:26.652Z,77.90
2018-09-05T03:14:56.065Z,77.70
2018-09-05T03:17:25.615Z,77.90
2018-09-05T03:19:55.074Z,77.80
2018-09-05T03:22:24.593Z,77.00
2018-09-05T03:24:54.058Z,76.70
2018-09-05T03:27:23.499Z,76.20
2018-09-05T03:29:52.916Z,76.20
2018-09-05T03:32:22.536Z,76.00
2018-09-05T03:34:51.838Z,76.60
2018-09-05T03:37:21.334Z,77.20
2018-09-05T03:39:50.734Z,77.40
2018-09-05T03:42:20.153Z,76.80
2018-09-05T03:44:49.578Z,76.80
2018-09-05T03:47:19.002Z,76.70
2018-09-05T03:49:48.466Z,76.80
2018-09-05T03:52:17.892Z,76.70
2018-09-05T03:54:47.331Z,77.30
2018-09-05T03:57:16.728Z,76.70
2018-09-05T03:59:46.142Z,76.70
2018-09-05T04:02:15.658Z,76.70
2018-09-05T04:04:45.067Z,76.60
2018-09-05T04:07:14.536Z,76.60
2018-09-05T04:09:43.970Z,76.60
2018-09-05T04:12:13.540Z,76.60
2018-09-05T04:14:42.890Z,76.60
2018-09-05T04:17:12.321Z,76.60
2018-09-05T04:19:41.758Z,76.60
2018-09-05T04:22:11.275Z,76.70
2018-09-05T04:24:40.651Z,76.60
2018-09-05T04:27:10.067Z,76.80
2018-09-05T04:29:39.536Z,76.90
2018-09-05T04:32:09.031Z,77.40
2018-09-05T04:34:38.478Z,77.50
2018-09-05T04:37:07.905Z,77.00
2018-09-05T04:39:37.391Z,76.70
2018-09-05T04:42:06.885Z,76.70
2018-09-05T04:44:36.314Z,77.30
2018-09-05T04:47:06.122Z,77.50
2018-09-05T04:49:35.590Z,78.00
2018-09-05T04:52:05.253Z,78.10
2018-09-05T04:54:35.066Z,78.10
2018-09-05T04:57:04.921Z,78.40
2018-09-05T04:59:34.787Z,78.30
2018-09-05T05:02:04.246Z,78.30
2018-09-05T05:04:33.742Z,78.50
2018-09-05T05:07:03.127Z,78.70
2018-09-05T05:09:32.643Z,79.10
2018-09-05T05:12:02.070Z,79.80
2018-09-05T05:14:31.550Z,79.60
2018-09-05T05:17:00.979Z,79.70
2018-09-05T05:19:30.525Z,80.10
2018-09-05T05:21:59.942Z,80.80
2018-09-05T05:24:29.349Z,81.50
2018-09-05T05:26:58.791Z,81.60
2018-09-05T05:29:28.203Z,81.80
2018-09-05T05:31:57.613Z,82.80
2018-09-05T05:34:27.106Z,82.30
2018-09-05T05:36:56.547Z,82.70
2018-09-05T05:39:26.022Z,83.10
2018-09-05T05:41:55.478Z,82.70
2018-09-05T05:44:24.946Z,82.80
2018-09-05T05:46:54.351Z,83.00
2018-09-05T05:49:23.762Z,83.20
2018-09-05T05:51:53.167Z,83.40
2018-09-05T05:54:22.602Z,83.70
2018-09-05T05:56:51.995Z,84.00
2018-09-05T05:59:21.423Z,84.30
2018-09-05T06:01:50.839Z,84.40
2018-09-05T06:04:20.244Z,84.50
2018-09-05T06:06:49.643Z,85.20
2018-09-05T06:09:19.068Z,84.90
2018-09-05T06:11:48.567Z,84.00
2018-09-05T06:14:18.002Z,83.90
2018-09-05T06:16:47.446Z,83.60
2018-09-05T06:19:16.890Z,83.60
2018-09-05T06:21:46.311Z,83.10
2018-09-05T06:24:15.732Z,82.70
2018-09-05T06:26:45.131Z,82.10
2018-09-05T06:29:14.585Z,82.70
2018-09-05T06:31:44.049Z,82.30
2018-09-05T06:34:13.469Z,81.60
2018-09-05T06:36:42.898Z,81.10
2018-09-05T06:39:12.406Z,81.00
2018-09-05T06:41:41.939Z,81.00
2018-09-05T06:44:11.419Z,80.70
2018-09-05T06:46:40.877Z,79.80
2018-09-05T06:49:10.336Z,79.70
2018-09-05T06:51:39.770Z,79.50
2018-09-05T06:54:09.243Z,79.90
2018-09-05T06:56:38.751Z,79.20
2018-09-05T06:59:08.210Z,78.60
2018-09-05T07:01:37.766Z,78.60
2018-09-05T07:04:07.426Z,78.40
2018-09-05T07:06:36.921Z,78.10
2018-09-05T07:09:09.163Z,77.70
2018-09-05T07:11:38.828Z,77.40
2018-09-05T07:14:08.428Z,77.40
2018-09-05T07:16:38.267Z,76.90
2018-09-05T07:19:09.360Z,77.20
2018-09-05T07:21:39.161Z,77.30
2018-09-05T07:24:08.597Z,77.40
2018-09-05T07:26:38.510Z,77.10
2018-09-05T07:29:07.960Z,77.00
2018-09-05T07:31:37.366Z,77.00
2018-09-05T07:34:06.809Z,76.60
2018-09-05T07:36:36.362Z,76.70
2018-09-05T07:39:08.596Z,76.30
2018-09-05T07:41:38.626Z,75.90
2018-09-05T07:44:08.128Z,75.40
2018-09-05T07:46:37.606Z,75.10
2018-09-05T07:49:07.379Z,74.70
2018-09-05T07:51:36.820Z,74.40
2018-09-05T07:54:06.390Z,74.00
2018-09-05T07:56:35.814Z,73.80
2018-09-05T07:59:05.627Z,72.80
2018-09-05T08:01:35.050Z,72.90
2018-09-05T08:04:04.551Z,72.60
2018-09-05T08:06:33.952Z,71.70
2018-09-05T08:09:04.519Z,71.60
2018-09-05T08:11:33.978Z,71.60
2018-09-05T08:14:03.386Z,71.30
2018-09-05T08:16:32.937Z,70.70
2018-09-05T08:19:02.422Z,70.10
2018-09-05T08:21:31.882Z,70.60
2018-09-05T08:24:01.862Z,69.50
2018-09-05T08:26:31.618Z,69.10
2018-09-05T08:29:01.092Z,68.60
2018-09-05T08:31:30.670Z,67.90
2018-09-05T08:34:00.115Z,67.80
2018-09-05T08:36:29.729Z,67.50
2018-09-05T08:38:59.115Z,66.90
2018-09-05T08:41:28.695Z,66.40
2018-09-05T08:43:58.034Z,66.30
2018-09-05T08:46:27.871Z,65.90
2018-09-05T08:48:57.281Z,65.60
2018-09-05T08:51:26.683Z,65.10
2018-09-05T08:53:56.083Z,65.20
2018-09-05T08:56:25.622Z,65.10
2018-09-05T08:58:55.134Z,64.00
2018-09-05T09:01:24.487Z,63.80
2018-09-05T09:03:53.914Z,63.90
2018-09-05T09:06:23.353Z,63.40
2018-09-05T09:08:52.874Z,62.10
2018-09-05T09:11:22.501Z,61.80
2018-09-05T09:13:51.925Z,61.30
2018-09-05T09:16:21.385Z,60.10
2018-09-05T09:18:50.904Z,59.60
2018-09-05T09:21:20.391Z,59.10
2018-09-05T09:23:49.843Z,58.20
2018-09-05T09:26:19.298Z,57.30
2018-09-05T09:28:48.739Z,57.60
2018-09-05T09:31:18.211Z,57.30
2018-09-05T09:33:47.790Z,57.00
2018-09-05T09:36:17.591Z,56.30
2018-09-05T09:38:47.190Z,57.10
2018-09-05T09:41:16.697Z,56.50
2018-09-05T09:43:46.500Z,55.70
2018-09-05T09:46:16.094Z,54.60
2018-09-05T09:48:45.568Z,54.10
2018-09-05T09:51:15.058Z,53.50
2018-09-05T09:53:44.511Z,53.20
2018-09-05T09:56:13.968Z,53.30
2018-09-05T09:58:43.506Z,53.00
2018-09-05T10:01:18.411Z,53.20
2018-09-05T10:03:53.272Z,52.40
2018-09-05T10:06:26.902Z,52.00
2018-09-05T10:09:01.771Z,51.80
2018-09-05T10:11:36.439Z,51.20
2018-09-05T10:14:11.696Z,51.80
2018-09-05T10:16:46.373Z,51.80
2018-09-05T10:19:15.881Z,51.60
2018-09-05T10:21:45.342Z,51.80
2018-09-05T10:24:14.784Z,51.50
2018-09-05T10:26:44.195Z,51.30
2018-09-05T10:29:13.626Z,50.00
2018-09-05T10:31:43.125Z,49.30
2018-09-05T10:34:12.692Z,49.20
2018-09-05T10:36:42.204Z,49.40
2018-09-05T10:39:12.261Z,48.30
2018-09-05T10:41:41.726Z,47.70
2018-09-05T10:44:11.225Z,47.40
2018-09-05T10:46:40.968Z,47.80
2018-09-05T10:49:10.425Z,46.80
2018-09-05T10:51:45.504Z,45.80
2018-09-05T10:54:14.920Z,45.30
2018-09-05T10:56:44.517Z,44.90
2018-09-05T10:59:14.014Z,44.90
2018-09-05T11:01:43.576Z,44.70
2018-09-05T11:04:13.065Z,44.10
2018-09-05T11:06:42.850Z,44.70
2018-09-05T11:09:12.826Z,44.40
2018-09-05T11:11:42.370Z,44.10
2018-09-05T11:14:12.069Z,44.20
2018-09-05T11:16:41.682Z,44.20
2018-09-05T11:19:11.280Z,44.50
2018-09-05T11:21:40.807Z,43.30
2018-09-05T11:24:10.387Z,43.10
2018-09-05T11:26:39.998Z,42.10
2018-09-05T11:29:39.594Z,42.70
2018-09-05T11:32:09.104Z,42.40
2018-09-05T11:34:38.611Z,42.90
2018-09-05T11:37:08.077Z,42.90
2018-09-05T11:39:37.576Z,42.70
2018-09-05T11:42:07.076Z,42.60
2018-09-05T11:44:36.520Z,42.00
2018-09-05T11:47:06.071Z,41.80
2018-09-05T11:49:35.470Z,41.10
2018-09-05T11:52:04.951Z,41.20
2018-09-05T11:54:34.372Z,41.30
2018-09-05T11:57:03.797Z,41.20
2018-09-05T11:59:33.251Z,41.00
2018-09-05T12:02:02.814Z,40.70
2018-09-05T12:04:32.320Z,38.90
2018-09-05T12:07:01.798Z,38.60
2018-09-05T12:09:31.208Z,39.80
2018-09-05T12:12:00.737Z,39.10
2018-09-05T12:14:30.197Z,38.60
2018-09-05T12:16:59.707Z,37.80
2018-09-05T12:19:29.139Z,38.00
2018-09-05T12:21:58.879Z,38.80
2018-09-05T12:24:28.298Z,39.10
2018-09-05T12:26:57.734Z,39.50
2018-09-05T12:29:30.134Z,39.60
2018-09-05T12:31:59.586Z,38.50
2018-09-05T12:34:29.052Z,38.10
2018-09-05T12:36:58.456Z,38.00
2018-09-05T12:39:27.903Z,37.30
2018-09-05T12:41:57.455Z,37.40
2018-09-05T12:44:26.958Z,37.30
2018-09-05T12:46:56.386Z,37.20
2018-09-05T12:49:26.043Z,37.10
2018-09-05T12:51:55.538Z,37.60
2018-09-05T12:54:25.014Z,37.50
2018-09-05T12:56:54.558Z,37.90
2018-09-05T12:59:24.150Z,38.30
2018-09-05T13:01:53.553Z,38.30
2018-09-05T13:04:22.997Z,38.30
2018-09-05T13:06:52.688Z,38.60
2018-09-05T13:09:22.216Z,38.60
2018-09-05T13:11:51.770Z,38.80
2018-09-05T13:14:21.258Z,38.40
2018-09-05T13:16:50.737Z,38.60
2018-09-05T13:19:20.176Z,38.70
2018-09-05T13:21:49.596Z,38.70
2018-09-05T13:24:19.019Z,38.60
2018-09-05T13:26:48.946Z,38.10
2018-09-05T13:29:18.377Z,37.80
2018-09-05T13:31:47.789Z,37.50
2018-09-05T13:34:17.235Z,37.20
2018-09-05T13:36:46.634Z,37.80
2018-09-05T13:39:16.060Z,38.20
2018-09-05T13:41:45.543Z,38.90
2018-09-05T13:44:14.987Z,39.50
2018-09-05T13:46:44.430Z,40.10
2018-09-05T13:49:13.910Z,40.70
2018-09-05T13:51:47.028Z,40.60
2018-09-05T13:54:16.447Z,41.30
2018-09-05T13:56:45.863Z,41.60
2018-09-05T13:59:15.278Z,42.10
2018-09-05T14:01:44.969Z,42.20
2018-09-05T14:04:14.386Z,42.40
2018-09-05T14:06:43.807Z,43.10
2018-09-05T14:09:13.523Z,43.60
2018-09-05T14:11:42.950Z,44.10
2018-09-05T14:14:12.372Z,44.00
2018-09-05T14:16:41.788Z,44.60
2018-09-05T14:19:11.186Z,44.80
2018-09-05T14:21:40.628Z,45.30
2018-09-05T14:24:10.095Z,45.40
2018-09-05T14:26:39.564Z,45.60
2018-09-05T14:29:09.043Z,45.90
2018-09-05T14:31:38.535Z,46.20
2018-09-05T14:34:08.161Z,46.30
2018-09-05T14:36:37.699Z,46.60
2018-09-05T14:39:09.925Z,46.70
2018-09-05T14:41:39.364Z,46.50
2018-09-05T14:44:08.800Z,46.80
2018-09-05T14:46:38.258Z,47.40
2018-09-05T14:49:07.758Z,47.60
2018-09-05T14:51:37.212Z,47.90
2018-09-05T14:54:06.726Z,48.20
2018-09-05T14:56:36.394Z,48.50
2018-09-05T14:59:05.945Z,48.40
2018-09-05T15:01:35.368Z,48.30
2018-09-05T15:04:05.198Z,48.20
2018-09-05T15:06:34.702Z,48.70
2018-09-05T15:09:06.535Z,48.50
2018-09-05T15:11:36.032Z,48.80
2018-09-05T15:14:05.587Z,49.00
2018-09-05T15:16:35.055Z,49.10
2018-09-05T15:19:04.618Z,49.30
2018-09-05T15:21:34.347Z,49.60
2018-09-05T15:24:03.851Z,49.60
2018-09-05T15:26:34.435Z,50.00
2018-09-05T15:29:04.074Z,50.60
2018-09-05T15:31:33.531Z,50.10
2018-09-05T15:34:03.875Z,50.30
2018-09-05T15:36:33.396Z,50.70
2018-09-05T15:39:02.934Z,50.70
2018-09-05T15:41:32.386Z,50.90
2018-09-05T15:44:01.854Z,51.20
2018-09-05T15:46:31.300Z,51.40
2018-09-05T15:49:00.932Z,51.90
2018-09-05T15:51:30.354Z,51.90
2018-09-05T15:54:00.274Z,51.90
2018-09-05T15:56:29.966Z,52.10
2018-09-05T15:59:01.099Z,52.30
2018-09-05T16:01:30.880Z,52.30
2018-09-05T16:04:00.411Z,52.50
2018-09-05T16:06:29.815Z,52.60
2018-09-05T16:08:59.300Z,52.60
2018-09-05T16:11:28.794Z,52.70
2018-09-05T16:13:58.219Z,52.90
2018-09-05T16:16:27.663Z,52.90
2018-09-05T16:18:57.315Z,53.00
2018-09-05T16:21:26.759Z,53.10
2018-09-05T16:23:56.193Z,53.40
2018-09-05T16:26:25.659Z,53.70
2018-09-05T16:28:55.058Z,53.60
2018-09-05T16:31:24.795Z,53.40
2018-09-05T16:33:54.231Z,53.50
2018-09-05T16:36:23.941Z,53.40
2018-09-05T16:38:53.362Z,53.50
2018-09-05T16:41:22.796Z,53.60
2018-09-05T16:43:52.484Z,53.60
2018-09-05T16:46:21.982Z,53.70
2018-09-05T16:48:51.382Z,53.90
2018-09-05T16:51:20.811Z,54.20
2018-09-05T16:53:50.259Z,54.70
2018-09-05T16:56:19.869Z,54.70
2018-09-05T16:58:49.283Z,54.70
2018-09-05T17:01:18.715Z,54.80
2018-09-05T17:03:48.170Z,54.90
2018-09-05T17:06:17.566Z,55.20
2018-09-05T17:08:47.009Z,55.60
2018-09-05T17:11:16.543Z,56.30
2018-09-05T17:13:45.958Z,56.30
2018-09-05T17:16:15.563Z,56.20
2018-09-05T17:18:45.446Z,56.20
2018-09-05T17:21:14.887Z,56.20
2018-09-05T17:23:44.354Z,56.20
2018-09-05T17:26:13.835Z,56.20
2018-09-05T17:28:43.280Z,56.10
2018-09-05T17:31:12.819Z,56.10
2018-09-05T17:33:42.391Z,56.10
2018-09-05T17:36:11.913Z,56.10
2018-09-05T17:38:41.418Z,56.00
2018-09-05T17:41:10.930Z,56.30
2018-09-05T17:43:40.358Z,56.50
2018-09-05T17:46:09.867Z,56.70
2018-09-05T17:48:39.354Z,56.70
2018-09-05T17:51:08.870Z,57.00
2018-09-05T17:53:38.503Z,57.30
2018-09-05T17:56:07.897Z,57.50
2018-09-05T17:58:37.305Z,57.80
2018-09-05T18:01:09.995Z,57.80
2018-09-05T18:03:39.467Z,57.70
2018-09-05T18:06:08.922Z,57.60
2018-09-05T18:08:38.343Z,57.60
2018-09-05T18:11:07.805Z,57.70
2018-09-05T18:13:37.249Z,57.90
2018-09-05T18:16:13.662Z,58.00
2018-09-05T18:18:43.538Z,58.10
2018-09-05T18:21:13.045Z,58.20
2018-09-05T18:23:42.491Z,58.10
2018-09-05T18:26:12.123Z,58.10
2018-09-05T18:28:41.522Z,58.30
2018-09-05T18:31:10.998Z,58.60
2018-09-05T18:33:40.799Z,58.80
2018-09-05T18:36:10.264Z,58.80
2018-09-05T18:38:39.689Z,58.70
2018-09-05T18:41:09.179Z,58.70
2018-09-05T18:43:38.647Z,58.70
2018-09-05T18:46:08.151Z,59.60
2018-09-05T18:48:37.655Z,59.00
2018-09-05T18:51:07.134Z,59.30
2018-09-05T18:53:36.646Z,59.40
2018-09-05T18:56:06.134Z,59.50
2018-09-05T18:58:35.570Z,59.80
2018-09-05T19:01:05.047Z,59.90
2018-09-05T19:03:34.483Z,59.80
2018-09-05T19:06:03.971Z,59.80
2018-09-05T19:08:33.368Z,59.90
2018-09-05T19:11:03.179Z,59.90
2018-09-05T19:13:32.670Z,60.10
2018-09-05T19:16:02.153Z,60.10
2018-09-05T19:18:31.632Z,60.20
2018-09-05T19:21:01.133Z,60.20
2018-09-05T19:23:30.590Z,60.10
2018-09-05T19:26:00.022Z,60.10
2018-09-05T19:28:30.312Z,60.10
2018-09-05T19:30:59.792Z,60.30
2018-09-05T19:33:29.230Z,60.60
2018-09-05T19:35:58.674Z,60.60
2018-09-05T19:38:28.159Z,60.70
2018-09-05T19:40:57.617Z,60.70
2018-09-05T19:43:27.087Z,60.70
2018-09-05T19:45:56.511Z,60.70
2018-09-05T19:48:25.951Z,60.80
2018-09-05T19:50:55.498Z,60.90
2018-09-05T19:53:24.948Z,61.00
2018-09-05T19:55:54.400Z,61.90
2018-09-05T19:58:23.845Z,61.30
2018-09-05T20:00:53.336Z,61.40
2018-09-05T20:03:22.773Z,61.50
2018-09-05T20:05:52.243Z,61.70
2018-09-05T20:08:21.778Z,61.70
2018-09-05T20:10:51.223Z,61.90
2018-09-05T20:13:20.804Z,62.10
2018-09-05T20:15:50.925Z,62.20
2018-09-05T20:18:20.843Z,62.60
2018-09-05T20:20:51.103Z,62.70
2018-09-05T20:23:20.780Z,63.00
2018-09-05T20:25:50.606Z,63.30
2018-09-05T20:28:20.381Z,63.50
2018-09-05T20:30:49.978Z,64.10
2018-09-05T20:33:19.425Z,64.00
2018-09-05T20:35:48.903Z,64.00
2018-09-05T20:38:18.307Z,63.90
2018-09-05T20:40:47.773Z,63.90
2018-09-05T20:43:17.255Z,64.10
2018-09-05T20:45:46.694Z,64.40
2018-09-05T20:48:16.161Z,64.70
2018-09-05T20:50:45.639Z,65.00
2018-09-05T20:53:15.065Z,65.10
2018-09-05T20:55:44.493Z,65.40
2018-09-05T20:58:13.986Z,65.50
2018-09-05T21:00:43.434Z,65.80
2018-09-05T21:03:12.906Z,66.10
2018-09-05T21:05:42.309Z,66.30
2018-09-05T21:08:11.747Z,66.50
2018-09-05T21:10:41.231Z,66.50
2018-09-05T21:13:10.634Z,66.70
2018-09-05T21:15:40.104Z,66.80
2018-09-05T21:18:09.588Z,67.00
2018-09-05T21:20:39.036Z,67.10
2018-09-05T21:23:09.129Z,67.10
2018-09-05T21:25:38.578Z,67.40
2018-09-05T21:28:07.998Z,67.40
2018-09-05T21:30:37.430Z,67.60
2018-09-05T21:33:06.832Z,67.80
2018-09-05T21:35:36.251Z,67.90
2018-09-05T21:38:05.707Z,68.10
2018-09-05T21:40:35.146Z,68.20
2018-09-05T21:43:04.554Z,68.40
2018-09-05T21:45:34.051Z,68.50
2018-09-05T21:48:03.459Z,68.60
2018-09-05T21:50:32.862Z,68.80
2018-09-05T21:53:02.927Z,69.70
2018-09-05T21:55:32.442Z,69.10
2018-09-05T21:58:02.034Z,69.20
2018-09-05T22:00:31.618Z,69.30
2018-09-05T22:03:01.036Z,69.30
2018-09-05T22:05:30.478Z,69.60
2018-09-05T22:07:59.897Z,69.70
2018-09-05T22:10:29.318Z,69.90
2018-09-05T22:12:58.793Z,70.00
2018-09-05T22:15:32.402Z,70.30
2018-09-05T22:18:02.185Z,70.50
2018-09-05T22:20:31.592Z,70.80
2018-09-05T22:23:00.993Z,71.00
2018-09-05T22:25:30.457Z,71.20
2018-09-05T22:28:00.049Z,71.50
2018-09-05T22:30:29.714Z,72.30
2018-09-05T22:32:59.146Z,71.70
2018-09-05T22:35:28.854Z,71.70
2018-09-05T22:37:58.577Z,71.90
2018-09-05T22:40:30.426Z,72.40
2018-09-05T22:43:12.040Z,72.70
2018-09-05T22:45:52.666Z,73.00
2018-09-05T22:52:52.696Z,73.00
2018-09-05T22:56:41.040Z,73.00
2018-09-05T22:59:25.531Z,72.20
2018-09-05T23:06:13.994Z,72.40
2018-09-05T23:08:44.665Z,72.90
2018-09-05T23:11:24.606Z,72.80
2018-09-05T23:15:05.460Z,72.80
2018-09-05T23:19:49.881Z,73.10
2018-09-05T23:22:19.293Z,73.20
2018-09-05T23:24:48.738Z,72.90
2018-09-05T23:27:18.154Z,73.30
2018-09-05T23:29:47.561Z,73.50
2018-09-05T23:32:17.376Z,73.70
2018-09-05T23:34:46.787Z,73.70
2018-09-05T23:37:16.202Z,73.60
2018-09-05T23:39:45.639Z,73.60
2018-09-05T23:42:15.081Z,73.60
2018-09-05T23:44:44.510Z,73.70
2018-09-05T23:47:13.963Z,73.80
2018-09-05T23:49:43.406Z,74.20
2018-09-05T23:52:12.863Z,74.70
2018-09-05T23:54:42.295Z,74.80
2018-09-05T23:57:11.780Z,75.20
2018-09-05T23:59:41.188Z,75.60
